CheckWX is a tool to help pilots better visualize weather data.  It is not intended as a substitute for an official pre-flight weather briefing.

08:07:43 UTC

KBIS TAF
Bismarck Municipal Airport
Bismarck, North Dakota, USA
KBIS 230528Z 2306/2406 26007KT P6SM SKC WS012/30045KT FM231300 30011G19KT P6SM FEW250 FM232300 VRB04KT P6SM FEW250

Feb-23@
06:00 UTC

Feb-23 @ 06:00 UTC

Feb-23@
13:00 UTC

Feb-23 @ 13:00 UTC

KBIS 230528Z 2306/2406 26007KT P6SM SKC WS012/30045KT
Wind
  • 260° at 7 KTS
Cloud Levels
  • Clear skies

Feb-23@
13:00 UTC

Feb-23 @ 13:00 UTC

Feb-23@
23:00 UTC

Feb-23 @ 23:00 UTC

FM231300 30011G19KT P6SM FEW250

From

From Standard forecast or significant change

Wind
  • 300° at 11 KTS
  • {Gusting to 19 KTS
Cloud Levels
  • Few at 25,000' AGL

Feb-23@
23:00 UTC

Feb-23 @ 23:00 UTC

Feb-24@
06:00 UTC

Feb-24 @ 06:00 UTC

FM232300 VRB04KT P6SM FEW250

From

From Standard forecast or significant change

Wind
  • Variable at 4 KTS
Cloud Levels
  • Few at 25,000' AGL